Time;durP1;ratioP1;P1;durP2;ratioP2;P2;SDS_P1;SDS_P2;PMS_P1;PMS_P2;Temp;Humidity;BMP_temperature;BMP_pressure;BME280_temperature;BME280_humidity;BME280_pressure;Samples;Min_cycle;Max_cycle;Signal;HPM_P1;HPM_P2
2022/06/18 00:00:24;;;;;;;1.50;0.82;;;22.50;61.50;;;;;;5057488;28;20043;-80
2022/06/18 00:02:51;;;;;;;2.60;0.93;;;22.40;61.50;;;;;;5074284;28;20127;-80
2022/06/18 00:05:20;;;;;;;2.83;1.10;;;22.40;61.50;;;;;;5091068;28;20373;-80
2022/06/18 00:07:51;;;;;;;2.17;0.95;;;22.40;61.60;;;;;;5057545;28;20059;-80
2022/06/18 00:10:23;;;;;;;3.30;1.00;;;22.40;61.60;;;;;;5090681;28;20044;-80
2022/06/18 00:15:40;;;;;;;1.67;0.88;;;22.30;61.80;;;;;;5094210;28;20048;-80
2022/06/18 00:18:12;;;;;;;1.98;1.02;;;22.30;61.90;;;;;;5094249;28;20126;-80
2022/06/18 00:20:40;;;;;;;2.33;1.10;;;22.30;62.00;;;;;;5077303;28;20498;-80
2022/06/18 00:23:14;;;;;;;2.30;0.90;;;22.20;62.10;;;;;;5094359;28;20066;-80
2022/06/18 00:25:58;;;;;;;2.85;1.00;;;22.20;62.20;;;;;;5094292;28;20496;-81
2022/06/18 00:28:30;;;;;;;2.05;0.95;;;22.20;62.30;;;;;;5103598;28;20041;-81
2022/06/18 00:30:58;;;;;;;1.40;0.80;;;22.20;62.40;;;;;;5094262;28;20051;-80
2022/06/18 00:33:25;;;;;;;1.50;0.70;;;22.10;62.40;;;;;;5095645;28;20044;-81
2022/06/18 00:35:56;;;;;;;1.40;0.77;;;22.10;62.50;;;;;;5077195;28;20108;-81
2022/06/18 00:38:37;;;;;;;1.58;0.90;;;22.10;62.70;;;;;;5093989;28;20040;-81
2022/06/18 00:41:05;;;;;;;1.67;0.90;;;22.00;62.70;;;;;;5077286;28;20127;-81
2022/06/18 00:43:40;;;;;;;2.88;0.90;;;22.00;62.90;;;;;;5093798;28;20052;-81
2022/06/18 00:46:14;;;;;;;2.60;1.00;;;22.00;63.00;;;;;;5093663;28;20128;-81
2022/06/18 00:49:08;;;;;;;2.20;0.75;;;22.00;63.00;;;;;;5087097;28;20039;-81
2022/06/18 00:51:43;;;;;;;1.65;0.90;;;22.00;63.70;;;;;;5082109;28;20071;-81
2022/06/18 00:54:39;;;;;;;1.58;0.80;;;21.90;63.20;;;;;;5095070;28;20043;-80
2022/06/18 00:57:11;;;;;;;2.80;0.68;;;21.90;63.20;;;;;;5093633;28;20036;-80
2022/06/18 00:59:52;;;;;;;2.15;0.70;;;21.80;63.40;;;;;;5093507;28;20044;-80
2022/06/18 01:02:28;;;;;;;1.30;0.60;;;21.80;63.50;;;;;;5088773;28;20048;-80
2022/06/18 01:04:55;;;;;;;1.65;0.70;;;21.80;63.70;;;;;;5093239;28;20059;-80
2022/06/18 01:07:30;;;;;;;1.85;1.00;;;21.70;63.70;;;;;;5056679;28;20040;-80
2022/06/18 01:10:01;;;;;;;2.08;0.93;;;21.70;64.40;;;;;;5103482;28;20530;-80
2022/06/18 01:12:30;;;;;;;1.48;0.80;;;21.70;64.00;;;;;;5059518;28;20041;-80
2022/06/18 01:15:06;;;;;;;1.58;1.08;;;21.60;64.10;;;;;;5074465;28;20506;-80
2022/06/18 01:17:40;;;;;;;1.48;0.90;;;21.70;64.20;;;;;;5092337;28;20102;-80
2022/06/18 01:20:10;;;;;;;2.17;0.80;;;21.60;64.30;;;;;;5094513;28;20571;-80
2022/06/18 01:23:14;;;;;;;2.78;0.80;;;21.60;64.40;;;;;;5086690;28;20580;-80
2022/06/18 01:25:41;;;;;;;1.25;0.80;;;21.60;64.40;;;;;;5077602;28;20100;-80
2022/06/18 01:28:09;;;;;;;2.13;0.95;;;21.50;64.60;;;;;;5059826;28;20048;-80
2022/06/18 01:30:39;;;;;;;2.63;0.95;;;21.50;64.70;;;;;;5072962;28;20079;-80
2022/06/18 01:33:15;;;;;;;1.08;0.60;;;21.50;64.80;;;;;;5076281;28;20122;-80
2022/06/18 01:35:50;;;;;;;1.45;0.80;;;21.50;64.90;;;;;;5092618;28;20047;-80
2022/06/18 01:38:20;;;;;;;1.30;0.82;;;21.50;65.00;;;;;;5093164;28;20038;-80
2022/06/18 01:44:05;;;;;;;2.42;0.77;;;21.40;65.10;;;;;;5084368;28;20044;-80
2022/06/18 01:46:35;;;;;;;2.85;1.00;;;21.30;65.10;;;;;;5075922;28;20458;-81
2022/06/18 01:49:07;;;;;;;1.77;0.77;;;21.30;65.20;;;;;;5092737;28;20491;-80
2022/06/18 01:51:38;;;;;;;2.50;0.90;;;21.30;65.40;;;;;;5075668;28;20210;-80
2022/06/18 01:54:26;;;;;;;1.58;0.80;;;21.30;65.40;;;;;;5072756;28;20059;-80
2022/06/18 01:57:00;;;;;;;2.40;1.25;;;21.30;66.00;;;;;;5070309;28;20055;-80
2022/06/18 01:59:43;;;;;;;1.80;0.70;;;21.30;65.50;;;;;;5075665;28;20055;-80
2022/06/18 02:02:12;;;;;;;1.40;1.00;;;21.30;65.50;;;;;;5092328;28;20109;-80
2022/06/18 02:04:39;;;;;;;2.45;0.80;;;21.30;65.70;;;;;;5075585;28;20560;-80
2022/06/18 02:07:08;;;;;;;4.45;0.90;;;21.20;65.60;;;;;;5092361;28;20048;-80
2022/06/18 02:09:53;;;;;;;1.83;0.80;;;21.20;65.70;;;;;;5081944;28;20045;-80
2022/06/18 02:12:25;;;;;;;1.98;0.85;;;21.20;65.80;;;;;;5072945;28;20044;-80
2022/06/18 02:14:58;;;;;;;1.53;0.80;;;21.20;65.90;;;;;;5092306;28;20142;-80
2022/06/18 02:17:27;;;;;;;2.67;0.90;;;21.10;66.00;;;;;;5091952;28;20564;-80
2022/06/18 02:20:17;;;;;;;2.33;1.05;;;21.10;66.10;;;;;;5092148;28;20119;-81
2022/06/18 02:22:49;;;;;;;3.35;0.93;;;21.10;66.10;;;;;;5095316;28;20040;-80
2022/06/18 02:25:20;;;;;;;1.77;0.98;;;21.10;66.20;;;;;;5091818;28;20040;-81
2022/06/18 02:27:50;;;;;;;1.45;0.80;;;21.10;66.30;;;;;;5075045;28;20048;-81
2022/06/18 02:30:23;;;;;;;1.42;0.70;;;21.10;66.40;;;;;;5075157;28;20062;-81
2022/06/18 02:33:21;;;;;;;1.52;0.80;;;21.10;66.30;;;;;;5075032;28;20052;-80
2022/06/18 02:35:52;;;;;;;1.98;0.90;;;21.10;66.30;;;;;;5074581;28;20098;-80
2022/06/18 02:38:21;;;;;;;2.70;1.00;;;21.10;66.40;;;;;;5074949;28;20044;-81
2022/06/18 02:40:49;;;;;;;1.83;0.95;;;21.10;66.40;;;;;;5091787;28;20043;-81
2022/06/18 02:43:20;;;;;;;1.42;0.70;;;21.00;66.40;;;;;;5074914;28;20040;-80
2022/06/18 02:45:51;;;;;;;2.72;1.00;;;21.00;66.60;;;;;;5064640;28;20417;-80
2022/06/18 02:48:22;;;;;;;2.15;1.00;;;21.00;66.60;;;;;;5088476;28;20043;-80
2022/06/18 02:50:49;;;;;;;2.20;0.90;;;21.00;66.70;;;;;;5091534;28;20044;-80
2022/06/18 02:53:17;;;;;;;2.50;0.90;;;21.00;66.70;;;;;;5073077;28;20048;-80
2022/06/18 02:55:49;;;;;;;2.13;0.90;;;21.00;67.30;;;;;;5074470;28;20050;-80
2022/06/18 02:58:22;;;;;;;1.73;0.90;;;21.00;66.70;;;;;;5074511;28;20040;-80
2022/06/18 03:00:55;;;;;;;1.92;1.10;;;21.00;66.70;;;;;;5074741;28;20131;-81
2022/06/18 03:03:25;;;;;;;4.03;1.27;;;21.00;66.80;;;;;;5080997;28;20040;-81
2022/06/18 03:05:53;;;;;;;2.53;1.40;;;21.00;66.80;;;;;;5090981;28;20404;-81
2022/06/18 03:08:22;;;;;;;2.00;1.15;;;21.00;66.80;;;;;;5058093;28;20145;-81
2022/06/18 03:13:39;;;;;;;1.77;1.05;;;21.00;66.70;;;;;;5086189;28;20045;-81
2022/06/18 03:16:12;;;;;;;1.83;1.10;;;21.00;66.60;;;;;;5057885;28;20415;-81
2022/06/18 03:18:42;;;;;;;2.08;1.35;;;21.10;66.60;;;;;;5074371;28;20094;-81
2022/06/18 03:21:31;;;;;;;2.05;1.45;;;21.00;66.60;;;;;;5091613;28;20518;-81
2022/06/18 03:23:59;;;;;;;2.40;1.30;;;21.00;66.60;;;;;;5091545;28;20066;-81
2022/06/18 03:26:26;;;;;;;2.45;1.45;;;21.00;66.60;;;;;;5074820;28;20442;-81
2022/06/18 03:28:57;;;;;;;2.75;1.42;;;21.10;66.80;;;;;;5074949;28;20093;-81
2022/06/18 03:31:25;;;;;;;3.42;2.00;;;21.00;66.70;;;;;;5091140;28;20044;-81
2022/06/18 03:33:52;;;;;;;2.20;1.25;;;21.00;66.70;;;;;;5071184;28;20557;-80
2022/06/18 03:36:20;;;;;;;2.55;1.35;;;21.00;66.70;;;;;;5074336;28;20488;-81
2022/06/18 03:38:50;;;;;;;2.75;1.50;;;21.10;66.80;;;;;;5074488;28;20059;-81
2022/06/18 03:41:20;;;;;;;3.33;1.95;;;21.00;66.70;;;;;;5075007;28;20040;-81
2022/06/18 03:43:48;;;;;;;2.47;1.38;;;21.10;66.80;;;;;;5071678;28;20041;-81
2022/06/18 03:46:17;;;;;;;2.33;1.40;;;21.00;66.80;;;;;;5068652;28;20047;-81
2022/06/18 03:48:52;;;;;;;2.40;1.58;;;21.00;66.90;;;;;;5076163;28;20402;-82
2022/06/18 03:51:24;;;;;;;3.30;1.70;;;21.10;67.00;;;;;;5078915;28;20075;-81
2022/06/18 03:53:53;;;;;;;3.22;1.63;;;21.00;67.00;;;;;;5078252;28;20086;-82
2022/06/18 03:56:23;;;;;;;2.50;1.40;;;21.00;67.00;;;;;;5094861;28;20051;-81
2022/06/18 03:58:51;;;;;;;3.28;1.40;;;21.00;67.00;;;;;;5094760;28;20090;-81
2022/06/18 04:01:23;;;;;;;3.75;1.50;;;21.00;67.10;;;;;;5061926;28;20036;-81
2022/06/18 04:03:52;;;;;;;2.08;1.30;;;21.10;67.10;;;;;;5094877;28;20048;-81
2022/06/18 04:06:29;;;;;;;3.08;1.60;;;21.00;67.10;;;;;;5086928;28;20060;-81
2022/06/18 04:08:59;;;;;;;2.35;1.45;;;21.10;67.30;;;;;;5062500;28;20040;-81
2022/06/18 04:11:27;;;;;;;2.10;1.30;;;21.10;67.30;;;;;;5078127;28;20058;-82
2022/06/18 04:13:54;;;;;;;3.03;1.80;;;21.10;67.30;;;;;;5045008;28;20050;-81
2022/06/18 04:16:31;;;;;;;2.88;1.58;;;21.10;67.20;;;;;;5059515;28;20484;-81
2022/06/18 04:19:03;;;;;;;2.88;1.90;;;21.20;67.20;;;;;;5078387;28;20040;-81
2022/06/18 04:21:30;;;;;;;2.63;1.88;;;21.20;67.30;;;;;;5057717;28;20152;-81
2022/06/18 04:23:58;;;;;;;3.15;2.03;;;21.20;67.20;;;;;;5060386;28;20504;-82
2022/06/18 04:26:26;;;;;;;4.70;1.85;;;21.20;67.20;;;;;;5077767;28;20044;-81
2022/06/18 04:28:53;;;;;;;3.33;2.10;;;21.20;67.20;;;;;;5077588;28;20048;-81
2022/06/18 04:31:21;;;;;;;3.38;2.15;;;21.20;67.20;;;;;;5061304;28;20040;-81
2022/06/18 04:33:50;;;;;;;2.95;1.92;;;21.30;67.10;;;;;;5094125;28;20066;-81
2022/06/18 04:36:37;;;;;;;3.40;1.90;;;21.30;67.10;;;;;;5079172;28;20117;-81
2022/06/18 04:39:36;;;;;;;3.95;1.98;;;21.40;67.00;;;;;;5067042;28;20048;-81
2022/06/18 04:42:22;;;;;;;2.90;1.98;;;21.40;67.00;;;;;;5065905;28;20051;-82
2022/06/18 04:44:52;;;;;;;2.42;1.73;;;21.40;66.90;;;;;;5076769;28;20504;-82
2022/06/18 04:47:25;;;;;;;3.08;2.10;;;21.40;66.90;;;;;;5062341;28;20040;-81
2022/06/18 04:49:53;;;;;;;3.13;2.10;;;21.50;66.90;;;;;;5073989;28;20136;-82
2022/06/18 04:52:21;;;;;;;3.42;2.30;;;21.50;66.80;;;;;;5073568;28;20048;-82
2022/06/18 04:54:56;;;;;;;3.47;1.98;;;21.60;66.80;;;;;;5078307;28;20454;-81
2022/06/18 04:57:24;;;;;;;4.45;2.45;;;21.60;66.70;;;;;;5060537;28;20547;-82
2022/06/18 04:59:52;;;;;;;2.17;1.85;;;21.70;66.70;;;;;;5077048;28;20062;-82
2022/06/18 05:02:23;;;;;;;2.97;2.05;;;21.70;66.60;;;;;;5056761;28;20048;-81
2022/06/18 05:05:15;;;;;;;3.88;2.60;;;21.80;66.60;;;;;;5090707;28;20043;-81
2022/06/18 05:08:20;;;;;;;4.82;3.38;;;21.90;66.50;;;;;;5061229;28;20036;-81
2022/06/18 05:11:10;;;;;;;4.18;2.80;;;21.90;66.50;;;;;;5058840;28;20123;-81
2022/06/18 05:13:49;;;;;;;3.75;2.85;;;21.90;66.40;;;;;;5072062;28;20055;-81
2022/06/18 05:16:26;;;;;;;3.67;2.38;;;22.00;66.30;;;;;;5074839;28;20105;-81
2022/06/18 05:18:54;;;;;;;4.72;3.50;;;22.00;66.20;;;;;;5068249;28;20052;-81
2022/06/18 05:21:22;;;;;;;4.60;3.80;;;22.00;66.30;;;;;;5076817;28;20036;-81
2022/06/18 05:23:58;;;;;;;5.75;3.72;;;22.10;66.30;;;;;;5077895;28;20047;-81
2022/06/18 05:26:25;;;;;;;4.85;3.13;;;22.10;66.30;;;;;;5043544;28;20117;-81
2022/06/18 05:28:52;;;;;;;4.18;3.28;;;22.20;66.30;;;;;;5059927;28;20040;-81
2022/06/18 05:31:19;;;;;;;4.15;3.03;;;22.20;66.10;;;;;;5093057;28;20369;-81
2022/06/18 05:33:48;;;;;;;5.75;3.50;;;22.30;66.20;;;;;;5093023;28;20047;-81
2022/06/18 05:36:19;;;;;;;6.28;3.83;;;22.40;66.10;;;;;;5076639;28;20040;-81
2022/06/18 05:38:53;;;;;;;5.28;2.88;;;22.40;66.00;;;;;;5061455;28;20044;-81
2022/06/18 05:41:20;;;;;;;5.03;2.83;;;22.50;66.00;;;;;;5092982;28;20105;-81
2022/06/18 05:43:47;;;;;;;5.45;3.13;;;22.50;65.90;;;;;;5092992;28;20415;-81
2022/06/18 05:46:15;;;;;;;4.55;2.97;;;22.60;65.90;;;;;;5072829;28;20070;-81
2022/06/18 05:48:42;;;;;;;5.32;2.67;;;22.70;65.90;;;;;;5072561;28;20051;-81
2022/06/18 05:51:10;;;;;;;3.35;2.72;;;22.70;65.80;;;;;;5072371;28;20064;-81
2022/06/18 05:53:37;;;;;;;3.80;2.75;;;22.70;65.70;;;;;;5074540;28;20052;-81
2022/06/18 05:56:38;;;;;;;7.53;4.07;;;22.80;65.60;;;;;;5066335;28;20398;-82
2022/06/18 05:59:11;;;;;;;5.75;3.85;;;22.80;65.60;;;;;;5076748;28;20040;-81
2022/06/18 06:01:41;;;;;;;4.15;3.45;;;22.80;65.60;;;;;;5092526;28;20044;-82
2022/06/18 06:04:08;;;;;;;4.80;3.13;;;22.90;65.90;;;;;;5075664;28;20051;-81
2022/06/18 06:06:36;;;;;;;7.35;3.03;;;22.90;65.50;;;;;;5092413;28;20856;-81
2022/06/18 06:09:04;;;;;;;4.45;2.72;;;23.00;65.90;;;;;;5075685;28;20496;-81
2022/06/18 06:11:32;;;;;;;2.58;2.00;;;23.00;65.20;;;;;;5091807;28;20075;-81
2022/06/18 06:14:05;;;;;;;8.05;4.13;;;23.10;65.00;;;;;;5076555;28;20044;-82
2022/06/18 06:16:33;;;;;;;3.80;2.58;;;23.20;65.10;;;;;;5092166;28;20040;-82
2022/06/18 06:19:03;;;;;;;5.55;2.50;;;23.20;64.90;;;;;;5056490;28;20051;-82
2022/06/18 06:21:30;;;;;;;6.85;3.80;;;23.30;64.90;;;;;;5092224;28;20122;-83
2022/06/18 06:23:58;;;;;;;4.43;3.22;;;23.30;64.90;;;;;;5058868;28;20047;-83
2022/06/18 06:26:34;;;;;;;3.67;2.33;;;23.30;64.80;;;;;;5091773;28;20051;-83
2022/06/18 06:30:16;;;;;;;5.45;2.50;;;23.40;64.80;;;;;;5071176;28;20086;-83
2022/06/18 06:32:44;;;;;;;4.05;2.08;;;23.60;64.60;;;;;;5054129;28;20063;-84
2022/06/18 06:35:12;;;;;;;5.00;2.30;;;23.60;64.40;;;;;;5037999;28;20061;-84
2022/06/18 06:37:39;;;;;;;3.65;2.40;;;23.80;64.30;;;;;;5077433;28;20040;-83
2022/06/18 06:40:08;;;;;;;5.82;3.53;;;23.80;64.20;;;;;;5048825;28;20148;-83
2022/06/18 06:42:45;;;;;;;4.97;3.50;;;23.80;64.10;;;;;;5048066;28;20045;-83
2022/06/18 06:45:36;;;;;;;3.65;2.60;;;23.90;64.20;;;;;;5042552;28;20044;-82
2022/06/18 06:48:09;;;;;;;7.40;3.30;;;23.90;64.20;;;;;;5054263;28;20061;-83
2022/06/18 06:50:36;;;;;;;5.35;3.00;;;24.00;64.20;;;;;;5070517;28;20044;-83
2022/06/18 06:53:03;;;;;;;5.80;3.17;;;24.00;64.10;;;;;;5050688;28;20052;-83
2022/06/18 06:58:21;;;;;;;4.97;3.22;;;24.20;64.00;;;;;;5070349;28;20040;-83
2022/06/18 07:00:52;;;;;;;4.97;3.90;;;24.20;63.90;;;;;;5070540;28;20057;-81
2022/06/18 07:03:26;;;;;;;5.40;3.40;;;24.20;63.90;;;;;;5070447;28;20114;-79
2022/06/18 07:05:53;;;;;;;6.30;3.10;;;24.30;64.00;;;;;;5075213;28;20051;-81
2022/06/18 07:08:20;;;;;;;6.60;4.07;;;24.30;63.90;;;;;;5071490;28;20069;-80
2022/06/18 07:10:50;;;;;;;5.05;3.30;;;24.40;63.90;;;;;;5074134;28;20050;-80
2022/06/18 07:13:19;;;;;;;4.68;3.55;;;24.40;63.90;;;;;;5084006;28;20047;-79
2022/06/18 07:15:47;;;;;;;4.40;2.75;;;24.40;64.00;;;;;;5091116;28;20040;-81
2022/06/18 07:18:17;;;;;;;4.65;3.20;;;24.50;63.90;;;;;;5071103;28;20082;-80
2022/06/18 07:20:45;;;;;;;7.72;4.28;;;24.50;63.80;;;;;;5089191;28;20405;-81
2022/06/18 07:23:12;;;;;;;4.32;3.20;;;24.60;63.80;;;;;;5092182;28;20090;-80
2022/06/18 07:25:40;;;;;;;5.45;3.05;;;24.60;63.70;;;;;;5082684;28;20119;-80
2022/06/18 07:28:07;;;;;;;3.20;2.50;;;24.70;63.60;;;;;;5094038;28;20101;-81
2022/06/18 07:30:36;;;;;;;7.05;3.20;;;24.90;63.40;;;;;;5078532;28;20067;-80
2022/06/18 07:33:04;;;;;;;6.18;3.70;;;25.00;63.20;;;;;;5092822;28;20446;-80
2022/06/18 07:35:34;;;;;;;5.15;2.50;;;25.00;63.00;;;;;;5062077;28;20075;-80
2022/06/18 07:38:02;;;;;;;3.95;2.60;;;25.10;63.00;;;;;;5096402;28;20518;-81
2022/06/18 07:40:52;;;;;;;4.15;2.58;;;25.10;63.00;;;;;;5095224;28;20036;-82
2022/06/18 07:43:35;;;;;;;3.72;2.08;;;25.30;62.90;;;;;;5095214;28;20074;-81
2022/06/18 07:46:04;;;;;;;4.22;3.00;;;25.40;62.80;;;;;;5095185;28;20044;-81
2022/06/18 07:48:32;;;;;;;4.95;2.13;;;25.40;63.40;;;;;;5078142;28;20032;-81
2022/06/18 07:50:59;;;;;;;3.75;2.63;;;25.50;62.70;;;;;;5094999;28;20105;-80
2022/06/18 07:53:27;;;;;;;4.03;3.13;;;25.60;62.50;;;;;;5078300;28;20044;-81
2022/06/18 07:55:56;;;;;;;3.63;2.15;;;25.60;62.30;;;;;;5096239;28;20044;-80
2022/06/18 07:58:24;;;;;;;3.65;2.08;;;25.70;62.20;;;;;;5077994;28;20074;-81
2022/06/18 08:00:51;;;;;;;3.92;2.35;;;25.80;62.10;;;;;;5094755;28;20097;-80
2022/06/18 08:03:18;;;;;;;4.25;2.53;;;25.90;62.00;;;;;;5078033;28;20132;-81
2022/06/18 08:05:46;;;;;;;5.97;2.55;;;25.90;61.80;;;;;;5074929;28;20047;-81
2022/06/18 08:08:15;;;;;;;3.53;2.20;;;26.00;61.80;;;;;;5084641;28;20067;-80
2022/06/18 08:11:06;;;;;;;4.55;2.80;;;26.00;61.70;;;;;;5075047;28;20049;-81
2022/06/18 08:13:33;;;;;;;5.40;1.88;;;26.20;61.60;;;;;;5091560;28;20052;-81
2022/06/18 08:16:00;;;;;;;4.78;2.40;;;26.20;61.40;;;;;;5095306;28;20047;-81
2022/06/18 08:18:27;;;;;;;3.63;1.75;;;26.30;61.30;;;;;;5074203;28;20040;-79
2022/06/18 08:21:05;;;;;;;2.88;1.92;;;26.40;61.80;;;;;;5071956;28;20071;-80
2022/06/18 08:23:34;;;;;;;4.28;1.83;;;26.60;61.00;;;;;;5087227;28;20085;-81
2022/06/18 08:26:01;;;;;;;4.45;2.70;;;26.60;60.80;;;;;;5090338;28;20097;-82
2022/06/18 08:28:30;;;;;;;2.83;1.50;;;26.70;60.70;;;;;;5086320;28;20043;-81
2022/06/18 08:30:57;;;;;;;3.80;2.22;;;26.80;60.60;;;;;;5071391;28;20086;-81
2022/06/18 08:33:24;;;;;;;5.90;2.45;;;26.80;60.40;;;;;;5057123;28;20554;-81
2022/06/18 08:35:51;;;;;;;3.92;2.13;;;26.90;60.50;;;;;;5094912;28;20055;-82
2022/06/18 08:38:19;;;;;;;4.28;2.10;;;26.90;60.30;;;;;;5060786;28;20531;-83
2022/06/18 08:41:12;;;;;;;4.53;2.35;;;27.00;60.30;;;;;;5095143;28;20036;-84
2022/06/18 08:44:00;;;;;;;3.92;2.00;;;27.20;60.10;;;;;;5081823;28;20480;-81
2022/06/18 08:46:41;;;;;;;3.58;1.60;;;27.20;59.80;;;;;;5093618;28;20135;-82
2022/06/18 08:49:22;;;;;;;3.40;2.00;;;27.30;59.70;;;;;;5087203;28;20043;-82
2022/06/18 08:52:10;;;;;;;2.80;1.38;;;27.40;59.70;;;;;;5093570;28;20040;-82
2022/06/18 08:54:46;;;;;;;5.85;2.05;;;27.50;59.50;;;;;;5095091;28;20036;-82
2022/06/18 08:57:38;;;;;;;3.55;1.65;;;27.70;59.30;;;;;;5096018;28;20550;-84
2022/06/18 09:00:31;;;;;;;4.38;1.77;;;27.80;59.10;;;;;;5083726;28;20416;-83
2022/06/18 09:03:36;;;;;;;4.30;1.95;;;27.80;58.80;;;;;;5094957;28;20036;-82
2022/06/18 09:06:36;;;;;;;3.08;1.80;;;27.80;58.50;;;;;;5083992;28;20060;-83
2022/06/18 09:09:27;;;;;;;3.05;1.67;;;28.00;58.50;;;;;;5093492;28;20581;-82
2022/06/18 09:12:05;;;;;;;3.38;1.45;;;28.20;58.40;;;;;;5093580;28;20446;-83
2022/06/18 09:15:01;;;;;;;2.53;1.45;;;28.40;58.10;;;;;;5094935;28;20043;-82
2022/06/18 09:17:33;;;;;;;3.58;1.45;;;28.50;57.90;;;;;;5093554;28;20040;-82
2022/06/18 09:20:19;;;;;;;;;;;28.60;57.60;;;;;;5077187;28;20048;-82
2022/06/18 09:22:51;;;;;;;3.25;1.40;;;28.70;57.50;;;;;;5059983;28;20556;-82
2022/06/18 09:25:23;;;;;;;5.07;1.77;;;28.80;57.20;;;;;;5086845;28;20040;-82
2022/06/18 09:28:04;;;;;;;3.13;1.30;;;28.80;57.10;;;;;;5093139;28;20480;-82
2022/06/18 09:30:37;;;;;;;3.78;1.35;;;29.00;57.00;;;;;;5093018;28;20502;-81
2022/06/18 09:33:18;;;;;;;3.70;1.85;;;29.10;56.90;;;;;;5093127;28;20044;-82
2022/06/18 09:35:53;;;;;;;3.17;1.70;;;29.20;56.80;;;;;;5093193;28;20064;-82
2022/06/18 09:38:49;;;;;;;2.88;1.30;;;29.20;56.60;;;;;;5076115;28;20055;-83
2022/06/18 09:41:30;;;;;;;3.38;1.60;;;29.30;56.50;;;;;;5087851;28;20491;-82
2022/06/18 09:44:23;;;;;;;4.13;1.85;;;29.40;56.10;;;;;;5092866;28;20044;-82
2022/06/18 09:47:00;;;;;;;2.85;1.73;;;29.40;55.70;;;;;;5093397;28;20044;-82
2022/06/18 09:49:28;;;;;;;3.08;1.80;;;29.40;55.60;;;;;;5092993;28;20451;-81
2022/06/18 09:52:24;;;;;;;5.18;2.17;;;29.40;55.30;;;;;;5059518;28;20044;-80
2022/06/18 09:54:56;;;;;;;4.72;1.98;;;29.40;54.80;;;;;;5092896;28;20044;-82
2022/06/18 09:57:31;;;;;;;3.63;1.98;;;29.40;54.70;;;;;;5075847;28;20048;-82
2022/06/18 10:00:09;;;;;;;3.42;1.90;;;29.40;54.60;;;;;;5075697;28;20404;-80
2022/06/18 10:02:48;;;;;;;;;;;29.50;54.40;;;;;;5092836;28;20036;-82
2022/06/18 10:08:09;;;;;;;3.55;1.92;;;29.60;54.20;;;;;;5092413;28;20048;-82
2022/06/18 10:10:36;;;;;;;1.75;1.30;;;29.70;54.00;;;;;;5092507;28;20412;-82
2022/06/18 10:13:12;;;;;;;3.13;1.30;;;29.90;54.00;;;;;;5092578;28;20127;-85
2022/06/18 10:15:42;;;;;;;3.08;1.83;;;30.00;53.80;;;;;;5078068;28;20040;-84
2022/06/18 10:18:34;;;;;;;3.45;1.75;;;30.10;53.40;;;;;;5075693;28;20067;-86
2022/06/18 10:21:13;;;;;;;3.67;1.67;;;30.20;53.20;;;;;;5072694;28;20839;-86
2022/06/18 10:24:18;;;;;;;4.28;1.83;;;30.30;53.10;;;;;;5072262;28;20795;-87
2022/06/18 10:27:14;;;;;;;3.25;1.77;;;30.30;52.80;;;;;;5072278;28;20063;-86
2022/06/18 10:29:51;;;;;;;2.75;1.65;;;30.40;52.70;;;;;;5072123;28;20588;-86
2022/06/18 10:32:34;;;;;;;3.65;1.65;;;30.50;52.80;;;;;;5072369;28;20045;-85
2022/06/18 10:35:19;;;;;;;4.38;1.90;;;30.60;52.70;;;;;;5091711;28;20114;-87
2022/06/18 10:38:09;;;;;;;4.18;1.80;;;30.70;52.40;;;;;;5092028;28;20051;-87
2022/06/18 10:41:01;;;;;;;2.40;1.60;;;30.80;52.40;;;;;;5091829;28;20145;-86
2022/06/18 10:43:52;;;;;;;2.83;1.20;;;30.90;52.20;;;;;;5091821;28;20126;-86
2022/06/18 10:46:22;;;;;;;3.67;1.67;;;31.00;51.70;;;;;;5074736;28;20056;-83
2022/06/18 10:48:59;;;;;;;3.00;1.80;;;31.00;52.00;;;;;;5059339;28;20053;-86
2022/06/18 10:51:29;;;;;;;4.88;2.08;;;31.00;51.70;;;;;;5079470;28;20067;-84
2022/06/18 10:54:02;;;;;;;3.25;1.95;;;31.00;51.60;;;;;;5076226;28;20052;-85
2022/06/18 10:56:45;;;;;;;5.47;2.00;;;31.00;51.60;;;;;;5087160;28;20067;-85
2022/06/18 10:59:12;;;;;;;4.25;2.13;;;31.00;51.70;;;;;;5091499;28;20074;-81
2022/06/18 11:01:46;;;;;;;4.53;2.13;;;31.00;51.50;;;;;;5091762;28;20071;-83
2022/06/18 11:04:22;;;;;;;3.92;1.30;;;30.90;51.50;;;;;;5074812;28;20043;-88
2022/06/18 11:06:54;;;;;;;3.15;1.75;;;31.10;52.10;;;;;;5074961;28;20036;-84
2022/06/18 11:09:36;;;;;;;4.68;2.42;;;31.30;51.30;;;;;;5074817;28;20059;-83
2022/06/18 11:12:18;;;;;;;3.27;1.63;;;31.40;50.80;;;;;;5091601;28;20066;-83
2022/06/18 11:14:45;;;;;;;3.95;1.70;;;31.40;50.70;;;;;;5091596;28;20044;-83
2022/06/18 11:17:20;;;;;;;5.72;1.60;;;31.40;50.60;;;;;;5074602;28;20043;-82
2022/06/18 11:19:48;;;;;;;3.38;1.90;;;31.50;50.40;;;;;;5091502;28;20044;-85
2022/06/18 11:22:42;;;;;;;3.65;1.55;;;31.50;50.10;;;;;;5082618;28;20044;-84
2022/06/18 11:25:31;;;;;;;5.55;1.83;;;31.60;50.10;;;;;;5062083;28;20060;-84
2022/06/18 11:30:54;;;;;;;3.78;1.83;;;31.80;49.80;;;;;;5087048;28;20056;-81
2022/06/18 11:33:36;;;;;;;3.20;1.55;;;31.80;49.40;;;;;;5092520;28;20131;-80
2022/06/18 11:36:14;;;;;;;;;;;31.80;49.40;;;;;;5083608;28;20040;-80
2022/06/18 11:38:51;;;;;;;4.63;2.10;;;31.70;48.80;;;;;;5091258;28;19928;-80
2022/06/18 11:41:23;;;;;;;5.20;2.28;;;31.60;48.80;;;;;;5072316;28;20071;-80
2022/06/18 11:44:00;;;;;;;2.97;1.58;;;31.60;48.70;;;;;;5066257;28;20165;-84
2022/06/18 11:46:33;;;;;;;3.72;1.40;;;31.70;48.30;;;;;;5087405;28;20032;-79
2022/06/18 11:49:06;;;;;;;4.95;2.22;;;31.70;48.20;;;;;;5080955;28;20128;-80
2022/06/18 11:51:42;;;;;;;4.28;2.10;;;31.80;47.30;;;;;;5092192;28;20047;-80
2022/06/18 11:54:15;;;;;;;3.92;2.05;;;31.90;47.30;;;;;;5074262;28;20048;-87
2022/06/18 11:56:57;;;;;;;4.32;1.60;;;32.00;47.00;;;;;;5074201;28;20054;-85
2022/06/18 12:00:01;;;;;;;3.72;1.55;;;32.30;46.60;;;;;;5072216;28;20098;-83
2022/06/18 12:03:29;;;;;;;4.50;1.48;;;32.70;46.20;;;;;;5080320;28;20406;-83
2022/06/18 12:06:27;;;;;;;3.03;1.30;;;33.00;45.60;;;;;;5013526;28;20140;-83
2022/06/18 12:09:24;;;;;;;2.88;1.45;;;33.20;45.40;;;;;;5017698;28;20075;-84
2022/06/18 12:12:51;;;;;;;3.40;1.60;;;33.40;45.00;;;;;;5091193;28;20142;-86
2022/06/18 12:15:30;;;;;;;4.43;1.70;;;33.70;44.70;;;;;;5078183;28;20044;-83
2022/06/18 12:18:21;;;;;;;3.58;1.58;;;33.80;44.60;;;;;;5094655;28;20399;-85
2022/06/18 12:21:02;;;;;;;3.88;2.00;;;34.00;44.20;;;;;;5094686;28;20138;-84
2022/06/18 12:23:44;;;;;;;5.13;2.40;;;34.20;43.90;;;;;;5095980;28;20111;-84
2022/06/18 12:26:15;;;;;;;2.50;1.65;;;34.40;43.30;;;;;;5091531;28;20411;-84
2022/06/18 12:28:52;;;;;;;4.20;1.67;;;34.50;43.30;;;;;;5094827;28;20131;-84
2022/06/18 12:31:42;;;;;;;5.88;2.15;;;34.70;43.00;;;;;;5094579;28;20455;-85
2022/06/18 12:34:38;;;;;;;3.95;1.83;;;34.90;42.80;;;;;;5077463;28;20044;-84
2022/06/18 12:37:14;;;;;;;;;;;35.00;42.50;;;;;;5083945;28;20048;-86
2022/06/18 12:39:57;;;;;;;3.88;1.50;;;34.70;42.80;;;;;;5094253;28;20022;-84
2022/06/18 12:42:32;;;;;;;4.13;2.00;;;34.40;43.00;;;;;;5094620;28;20408;-86
2022/06/18 12:45:24;;;;;;;3.75;1.67;;;34.20;43.10;;;;;;5094667;28;20043;-85
2022/06/18 12:48:06;;;;;;;3.13;1.90;;;34.00;43.30;;;;;;5094297;28;20076;-85
2022/06/18 12:50:52;;;;;;;3.65;1.75;;;33.80;43.50;;;;;;5093329;28;20109;-81
2022/06/18 12:53:54;;;;;;;3.92;1.50;;;33.70;44.00;;;;;;5094103;28;20048;-81
2022/06/18 12:56:43;;;;;;;3.22;1.30;;;33.90;43.90;;;;;;5094427;28;20392;-81
2022/06/18 12:59:34;;;;;;;3.22;1.30;;;34.50;43.70;;;;;;5094123;28;20503;-81
2022/06/18 13:02:24;;;;;;;5.22;1.50;;;35.00;43.30;;;;;;5094091;28;20040;-81
2022/06/18 13:05:21;;;;;;;3.95;1.90;;;35.40;43.20;;;;;;5077120;28;20073;-81
2022/06/18 13:08:00;;;;;;;3.20;1.92;;;35.40;42.80;;;;;;5099978;28;20048;-81
2022/06/18 13:11:01;;;;;;;3.38;1.50;;;35.60;42.80;;;;;;5076933;28;20110;-81
2022/06/18 13:14:01;;;;;;;2.88;1.63;;;35.90;42.60;;;;;;5093714;28;20079;-81
2022/06/18 13:16:35;;;;;;;3.38;1.83;;;36.50;42.20;;;;;;5077013;28;20505;-81
2022/06/18 13:19:15;;;;;;;4.72;1.98;;;36.70;41.80;;;;;;5093729;28;20036;-81
2022/06/18 13:21:45;;;;;;;4.45;1.90;;;36.80;41.00;;;;;;5092471;28;20048;-82
2022/06/18 13:30:22;;;;;;;4.00;1.60;;;37.60;40.90;;;;;;5097299;28;20044;-82
2022/06/18 13:33:27;;;;;;;2.85;1.25;;;37.50;40.60;;;;;;5094638;28;20051;-80
2022/06/18 13:36:23;;;;;;;3.42;1.80;;;37.70;40.20;;;;;;5076789;28;20059;-82
2022/06/18 13:39:09;;;;;;;4.13;1.55;;;37.70;40.10;;;;;;5081971;28;20098;-82
2022/06/18 13:41:53;;;;;;;2.80;1.40;;;37.90;40.20;;;;;;5092870;28;20046;-82
2022/06/18 13:44:43;;;;;;;3.95;1.65;;;38.20;40.00;;;;;;5086602;28;20044;-86
2022/06/18 13:47:26;;;;;;;5.93;2.13;;;38.20;39.80;;;;;;5080712;28;20039;-84
2022/06/18 13:50:06;;;;;;;4.97;1.63;;;37.90;39.70;;;;;;5093070;28;20047;-83
2022/06/18 13:52:49;;;;;;;4.07;1.42;;;37.80;40.00;;;;;;5092832;28;20059;-84
2022/06/18 13:55:37;;;;;;;2.40;0.98;;;38.10;39.70;;;;;;5073682;28;20133;-85
2022/06/18 13:58:25;;;;;;;2.53;1.00;;;38.30;39.50;;;;;;5088065;28;20127;-85